sensor_id;sensor_type;location;lat;lon;timestamp;P1;durP1;ratioP1;P2;durP2;ratioP2
59854;SDS011;45732;52.850;6.896;2022-09-17T00:00:45;21.70;;;3.25;;
59854;SDS011;45732;52.850;6.896;2022-09-17T00:03:11;19.73;;;3.22;;
59854;SDS011;45732;52.850;6.896;2022-09-17T00:05:37;17.00;;;3.17;;
59854;SDS011;45732;52.850;6.896;2022-09-17T00:08:03;22.60;;;3.55;;
59854;SDS011;45732;52.850;6.896;2022-09-17T00:10:32;16.90;;;2.97;;
59854;SDS011;45732;52.850;6.896;2022-09-17T00:13:02;17.45;;;2.88;;
59854;SDS011;45732;52.850;6.896;2022-09-17T00:15:28;15.95;;;3.10;;
59854;SDS011;45732;52.850;6.896;2022-09-17T00:17:54;16.20;;;2.83;;
59854;SDS011;45732;52.850;6.896;2022-09-17T00:20:25;19.40;;;3.30;;
59854;SDS011;45732;52.850;6.896;2022-09-17T00:22:51;18.77;;;2.88;;
59854;SDS011;45732;52.850;6.896;2022-09-17T00:25:18;14.32;;;3.15;;
59854;SDS011;45732;52.850;6.896;2022-09-17T00:27:44;18.45;;;3.40;;
59854;SDS011;45732;52.850;6.896;2022-09-17T00:30:11;20.55;;;3.50;;
59854;SDS011;45732;52.850;6.896;2022-09-17T00:32:37;20.27;;;3.08;;
59854;SDS011;45732;52.850;6.896;2022-09-17T00:35:03;15.43;;;2.90;;
59854;SDS011;45732;52.850;6.896;2022-09-17T00:37:29;16.92;;;3.10;;
59854;SDS011;45732;52.850;6.896;2022-09-17T00:39:55;16.77;;;3.03;;
59854;SDS011;45732;52.850;6.896;2022-09-17T00:42:21;15.95;;;3.03;;
59854;SDS011;45732;52.850;6.896;2022-09-17T00:44:49;17.17;;;2.80;;
59854;SDS011;45732;52.850;6.896;2022-09-17T00:49:47;19.88;;;3.05;;
59854;SDS011;45732;52.850;6.896;2022-09-17T00:52:21;15.25;;;2.97;;
59854;SDS011;45732;52.850;6.896;2022-09-17T00:55:10;18.40;;;2.88;;
59854;SDS011;45732;52.850;6.896;2022-09-17T00:57:41;14.80;;;3.03;;
59854;SDS011;45732;52.850;6.896;2022-09-17T01:00:10;14.98;;;2.38;;
59854;SDS011;45732;52.850;6.896;2022-09-17T01:02:37;14.10;;;3.22;;
59854;SDS011;45732;52.850;6.896;2022-09-17T01:05:04;14.32;;;3.33;;
59854;SDS011;45732;52.850;6.896;2022-09-17T01:10:37;15.15;;;3.08;;
59854;SDS011;45732;52.850;6.896;2022-09-17T01:13:45;14.75;;;2.80;;
59854;SDS011;45732;52.850;6.896;2022-09-17T01:16:18;18.17;;;3.67;;
59854;SDS011;45732;52.850;6.896;2022-09-17T01:24:51;15.05;;;2.92;;
59854;SDS011;45732;52.850;6.896;2022-09-17T01:27:55;17.02;;;2.40;;
59854;SDS011;45732;52.850;6.896;2022-09-17T01:36:05;14.43;;;3.00;;
59854;SDS011;45732;52.850;6.896;2022-09-17T01:41:17;16.02;;;2.95;;
59854;SDS011;45732;52.850;6.896;2022-09-17T01:44:09;17.15;;;2.45;;
59854;SDS011;45732;52.850;6.896;2022-09-17T01:46:44;13.63;;;2.22;;
59854;SDS011;45732;52.850;6.896;2022-09-17T01:49:15;14.38;;;2.72;;
59854;SDS011;45732;52.850;6.896;2022-09-17T01:51:44;12.93;;;2.88;;
59854;SDS011;45732;52.850;6.896;2022-09-17T01:54:15;16.92;;;2.60;;
59854;SDS011;45732;52.850;6.896;2022-09-17T02:05:09;13.88;;;2.25;;
59854;SDS011;45732;52.850;6.896;2022-09-17T02:07:44;15.15;;;2.40;;
59854;SDS011;45732;52.850;6.896;2022-09-17T02:10:15;14.35;;;2.53;;
59854;SDS011;45732;52.850;6.896;2022-09-17T02:12:55;13.07;;;2.72;;
59854;SDS011;45732;52.850;6.896;2022-09-17T02:15:25;13.38;;;2.47;;
59854;SDS011;45732;52.850;6.896;2022-09-17T02:17:59;13.57;;;2.85;;
59854;SDS011;45732;52.850;6.896;2022-09-17T02:20:33;11.70;;;2.92;;
59854;SDS011;45732;52.850;6.896;2022-09-17T02:23:07;13.82;;;2.72;;
59854;SDS011;45732;52.850;6.896;2022-09-17T02:25:51;13.35;;;2.90;;
59854;SDS011;45732;52.850;6.896;2022-09-17T02:28:48;12.98;;;2.45;;
59854;SDS011;45732;52.850;6.896;2022-09-17T02:31:19;14.95;;;2.83;;
59854;SDS011;45732;52.850;6.896;2022-09-17T02:33:49;15.15;;;2.83;;
59854;SDS011;45732;52.850;6.896;2022-09-17T02:36:18;13.25;;;2.40;;
59854;SDS011;45732;52.850;6.896;2022-09-17T02:38:44;13.73;;;2.40;;
59854;SDS011;45732;52.850;6.896;2022-09-17T02:57:39;20.45;;;3.63;;
59854;SDS011;45732;52.850;6.896;2022-09-17T03:00:14;18.52;;;3.05;;
59854;SDS011;45732;52.850;6.896;2022-09-17T03:05:11;13.52;;;2.47;;
59854;SDS011;45732;52.850;6.896;2022-09-17T03:07:38;21.70;;;2.80;;
59854;SDS011;45732;52.850;6.896;2022-09-17T03:10:04;17.17;;;2.50;;
59854;SDS011;45732;52.850;6.896;2022-09-17T03:12:30;15.88;;;2.55;;
59854;SDS011;45732;52.850;6.896;2022-09-17T03:14:56;12.40;;;2.58;;
59854;SDS011;45732;52.850;6.896;2022-09-17T03:17:22;17.70;;;2.90;;
59854;SDS011;45732;52.850;6.896;2022-09-17T03:19:47;18.08;;;2.22;;
59854;SDS011;45732;52.850;6.896;2022-09-17T03:22:13;12.02;;;2.33;;
59854;SDS011;45732;52.850;6.896;2022-09-17T03:24:39;15.00;;;2.40;;
59854;SDS011;45732;52.850;6.896;2022-09-17T03:27:05;16.15;;;2.70;;
59854;SDS011;45732;52.850;6.896;2022-09-17T03:29:30;14.45;;;2.40;;
59854;SDS011;45732;52.850;6.896;2022-09-17T03:31:56;12.25;;;2.28;;
59854;SDS011;45732;52.850;6.896;2022-09-17T03:34:22;16.38;;;2.72;;
59854;SDS011;45732;52.850;6.896;2022-09-17T03:36:48;15.00;;;2.20;;
59854;SDS011;45732;52.850;6.896;2022-09-17T03:39:13;10.75;;;2.38;;
59854;SDS011;45732;52.850;6.896;2022-09-17T03:41:39;15.30;;;2.67;;
59854;SDS011;45732;52.850;6.896;2022-09-17T03:44:05;17.05;;;2.45;;
59854;SDS011;45732;52.850;6.896;2022-09-17T03:46:31;14.73;;;2.20;;
59854;SDS011;45732;52.850;6.896;2022-09-17T03:48:56;15.70;;;2.40;;
59854;SDS011;45732;52.850;6.896;2022-09-17T03:51:22;15.00;;;2.58;;
59854;SDS011;45732;52.850;6.896;2022-09-17T03:53:48;10.60;;;2.47;;
59854;SDS011;45732;52.850;6.896;2022-09-17T03:56:13;14.80;;;2.72;;
59854;SDS011;45732;52.850;6.896;2022-09-17T03:58:39;15.52;;;2.55;;
59854;SDS011;45732;52.850;6.896;2022-09-17T04:01:05;13.35;;;2.22;;
59854;SDS011;45732;52.850;6.896;2022-09-17T04:03:30;13.15;;;2.28;;
59854;SDS011;45732;52.850;6.896;2022-09-17T04:05:57;15.13;;;2.83;;
59854;SDS011;45732;52.850;6.896;2022-09-17T04:08:22;13.85;;;2.47;;
59854;SDS011;45732;52.850;6.896;2022-09-17T04:10:48;12.63;;;2.45;;
59854;SDS011;45732;52.850;6.896;2022-09-17T04:13:16;15.50;;;2.90;;
59854;SDS011;45732;52.850;6.896;2022-09-17T04:15:42;14.45;;;2.40;;
59854;SDS011;45732;52.850;6.896;2022-09-17T04:18:09;11.73;;;2.30;;
59854;SDS011;45732;52.850;6.896;2022-09-17T04:20:34;14.10;;;1.90;;
59854;SDS011;45732;52.850;6.896;2022-09-17T04:23:00;13.52;;;2.88;;
59854;SDS011;45732;52.850;6.896;2022-09-17T04:25:26;10.65;;;1.88;;
59854;SDS011;45732;52.850;6.896;2022-09-17T04:27:51;12.52;;;2.33;;
59854;SDS011;45732;52.850;6.896;2022-09-17T04:30:17;12.85;;;2.10;;
59854;SDS011;45732;52.850;6.896;2022-09-17T04:32:43;10.27;;;1.90;;
59854;SDS011;45732;52.850;6.896;2022-09-17T04:35:10;11.77;;;1.80;;
59854;SDS011;45732;52.850;6.896;2022-09-17T04:37:36;12.88;;;2.30;;
59854;SDS011;45732;52.850;6.896;2022-09-17T04:40:02;13.93;;;1.65;;
59854;SDS011;45732;52.850;6.896;2022-09-17T04:42:28;15.07;;;2.20;;
59854;SDS011;45732;52.850;6.896;2022-09-17T04:44:54;15.65;;;2.30;;
59854;SDS011;45732;52.850;6.896;2022-09-17T04:47:19;13.10;;;1.90;;
59854;SDS011;45732;52.850;6.896;2022-09-17T04:49:45;14.68;;;2.60;;
59854;SDS011;45732;52.850;6.896;2022-09-17T04:52:11;10.70;;;1.80;;
59854;SDS011;45732;52.850;6.896;2022-09-17T04:54:36;14.13;;;2.25;;
59854;SDS011;45732;52.850;6.896;2022-09-17T04:57:02;11.25;;;2.28;;
59854;SDS011;45732;52.850;6.896;2022-09-17T04:59:28;11.13;;;1.90;;
59854;SDS011;45732;52.850;6.896;2022-09-17T05:01:54;12.05;;;1.90;;
59854;SDS011;45732;52.850;6.896;2022-09-17T05:04:19;11.88;;;1.90;;
59854;SDS011;45732;52.850;6.896;2022-09-17T05:06:45;11.05;;;1.80;;
59854;SDS011;45732;52.850;6.896;2022-09-17T05:09:10;15.95;;;2.60;;
59854;SDS011;45732;52.850;6.896;2022-09-17T05:11:36;12.82;;;1.98;;
59854;SDS011;45732;52.850;6.896;2022-09-17T05:14:02;12.35;;;2.15;;
59854;SDS011;45732;52.850;6.896;2022-09-17T05:16:28;10.50;;;2.05;;
59854;SDS011;45732;52.850;6.896;2022-09-17T05:18:54;11.93;;;1.85;;
59854;SDS011;45732;52.850;6.896;2022-09-17T05:21:19;8.70;;;1.58;;
59854;SDS011;45732;52.850;6.896;2022-09-17T05:23:45;18.83;;;2.20;;
59854;SDS011;45732;52.850;6.896;2022-09-17T05:26:12;13.80;;;2.03;;
59854;SDS011;45732;52.850;6.896;2022-09-17T05:28:38;12.55;;;2.03;;
59854;SDS011;45732;52.850;6.896;2022-09-17T05:31:04;11.13;;;2.25;;
59854;SDS011;45732;52.850;6.896;2022-09-17T05:33:30;11.32;;;1.85;;
59854;SDS011;45732;52.850;6.896;2022-09-17T05:35:55;10.40;;;1.63;;
59854;SDS011;45732;52.850;6.896;2022-09-17T05:38:21;11.02;;;2.20;;
59854;SDS011;45732;52.850;6.896;2022-09-17T05:40:47;14.07;;;2.25;;
59854;SDS011;45732;52.850;6.896;2022-09-17T05:43:13;14.10;;;2.03;;
59854;SDS011;45732;52.850;6.896;2022-09-17T05:45:39;14.00;;;2.28;;
59854;SDS011;45732;52.850;6.896;2022-09-17T05:48:05;11.55;;;2.05;;
59854;SDS011;45732;52.850;6.896;2022-09-17T05:50:32;11.45;;;2.33;;
59854;SDS011;45732;52.850;6.896;2022-09-17T05:53:04;13.98;;;1.90;;
59854;SDS011;45732;52.850;6.896;2022-09-17T05:55:37;16.45;;;2.05;;
59854;SDS011;45732;52.850;6.896;2022-09-17T05:58:10;11.90;;;2.15;;
59854;SDS011;45732;52.850;6.896;2022-09-17T06:00:37;16.02;;;2.78;;
59854;SDS011;45732;52.850;6.896;2022-09-17T06:03:04;11.63;;;2.22;;
59854;SDS011;45732;52.850;6.896;2022-09-17T06:05:29;14.00;;;2.10;;
59854;SDS011;45732;52.850;6.896;2022-09-17T06:07:55;11.80;;;2.17;;
59854;SDS011;45732;52.850;6.896;2022-09-17T06:10:21;11.70;;;2.10;;
59854;SDS011;45732;52.850;6.896;2022-09-17T06:12:47;11.77;;;1.92;;
59854;SDS011;45732;52.850;6.896;2022-09-17T06:15:12;15.23;;;2.50;;
59854;SDS011;45732;52.850;6.896;2022-09-17T06:17:39;12.27;;;1.83;;
59854;SDS011;45732;52.850;6.896;2022-09-17T06:20:05;13.55;;;1.92;;
59854;SDS011;45732;52.850;6.896;2022-09-17T06:22:31;12.07;;;1.88;;
59854;SDS011;45732;52.850;6.896;2022-09-17T06:24:57;18.45;;;2.47;;
59854;SDS011;45732;52.850;6.896;2022-09-17T06:27:31;10.98;;;1.67;;
59854;SDS011;45732;52.850;6.896;2022-09-17T06:32:23;10.75;;;1.90;;
59854;SDS011;45732;52.850;6.896;2022-09-17T06:34:49;10.27;;;1.90;;
59854;SDS011;45732;52.850;6.896;2022-09-17T06:37:15;9.02;;;1.40;;
59854;SDS011;45732;52.850;6.896;2022-09-17T06:39:40;9.63;;;1.75;;
59854;SDS011;45732;52.850;6.896;2022-09-17T06:42:06;6.65;;;1.45;;
59854;SDS011;45732;52.850;6.896;2022-09-17T06:44:32;8.63;;;1.45;;
59854;SDS011;45732;52.850;6.896;2022-09-17T06:46:57;8.05;;;1.70;;
59854;SDS011;45732;52.850;6.896;2022-09-17T06:49:23;6.72;;;1.17;;
59854;SDS011;45732;52.850;6.896;2022-09-17T06:51:49;7.32;;;1.63;;
59854;SDS011;45732;52.850;6.896;2022-09-17T06:54:15;4.60;;;1.30;;
59854;SDS011;45732;52.850;6.896;2022-09-17T06:56:40;7.03;;;1.42;;
59854;SDS011;45732;52.850;6.896;2022-09-17T06:59:06;9.18;;;1.52;;
59854;SDS011;45732;52.850;6.896;2022-09-17T07:01:31;8.32;;;1.60;;
59854;SDS011;45732;52.850;6.896;2022-09-17T07:03:57;8.40;;;1.45;;
59854;SDS011;45732;52.850;6.896;2022-09-17T07:06:23;7.90;;;1.38;;
59854;SDS011;45732;52.850;6.896;2022-09-17T07:08:48;7.10;;;1.40;;
59854;SDS011;45732;52.850;6.896;2022-09-17T07:11:14;7.55;;;1.40;;
59854;SDS011;45732;52.850;6.896;2022-09-17T07:13:40;8.95;;;1.30;;
59854;SDS011;45732;52.850;6.896;2022-09-17T07:16:06;7.60;;;1.40;;
59854;SDS011;45732;52.850;6.896;2022-09-17T07:18:33;10.07;;;1.83;;
59854;SDS011;45732;52.850;6.896;2022-09-17T07:21:00;11.00;;;1.77;;
59854;SDS011;45732;52.850;6.896;2022-09-17T07:23:28;8.05;;;1.70;;
59854;SDS011;45732;52.850;6.896;2022-09-17T07:25:56;9.23;;;2.03;;
59854;SDS011;45732;52.850;6.896;2022-09-17T07:28:24;9.45;;;1.40;;
59854;SDS011;45732;52.850;6.896;2022-09-17T07:30:51;10.85;;;2.13;;
59854;SDS011;45732;52.850;6.896;2022-09-17T07:33:18;7.20;;;1.40;;
59854;SDS011;45732;52.850;6.896;2022-09-17T07:35:57;9.20;;;1.73;;
59854;SDS011;45732;52.850;6.896;2022-09-17T07:38:25;8.57;;;1.60;;
59854;SDS011;45732;52.850;6.896;2022-09-17T07:40:59;9.40;;;1.50;;
59854;SDS011;45732;52.850;6.896;2022-09-17T07:43:25;10.63;;;1.70;;
59854;SDS011;45732;52.850;6.896;2022-09-17T07:45:52;12.52;;;1.63;;
59854;SDS011;45732;52.850;6.896;2022-09-17T07:48:19;10.82;;;2.17;;
59854;SDS011;45732;52.850;6.896;2022-09-17T07:50:45;8.43;;;2.15;;
59854;SDS011;45732;52.850;6.896;2022-09-17T07:53:11;11.70;;;1.73;;
59854;SDS011;45732;52.850;6.896;2022-09-17T07:55:37;10.85;;;1.50;;
59854;SDS011;45732;52.850;6.896;2022-09-17T07:58:03;8.52;;;1.40;;
59854;SDS011;45732;52.850;6.896;2022-09-17T08:00:29;9.48;;;2.00;;
59854;SDS011;45732;52.850;6.896;2022-09-17T08:02:55;10.05;;;1.83;;
59854;SDS011;45732;52.850;6.896;2022-09-17T08:05:22;9.88;;;1.70;;
59854;SDS011;45732;52.850;6.896;2022-09-17T08:07:52;10.00;;;1.40;;
59854;SDS011;45732;52.850;6.896;2022-09-17T08:10:19;10.23;;;1.60;;
59854;SDS011;45732;52.850;6.896;2022-09-17T08:12:52;7.22;;;1.70;;
59854;SDS011;45732;52.850;6.896;2022-09-17T08:17:45;9.98;;;1.70;;
59854;SDS011;45732;52.850;6.896;2022-09-17T08:20:12;11.95;;;1.60;;
59854;SDS011;45732;52.850;6.896;2022-09-17T08:22:38;9.20;;;1.95;;
59854;SDS011;45732;52.850;6.896;2022-09-17T08:25:05;8.80;;;1.48;;
59854;SDS011;45732;52.850;6.896;2022-09-17T08:27:32;9.35;;;1.50;;
59854;SDS011;45732;52.850;6.896;2022-09-17T08:29:58;9.75;;;1.90;;
59854;SDS011;45732;52.850;6.896;2022-09-17T08:32:24;6.97;;;1.33;;
59854;SDS011;45732;52.850;6.896;2022-09-17T08:34:50;9.38;;;1.33;;
59854;SDS011;45732;52.850;6.896;2022-09-17T08:37:18;7.10;;;1.17;;
59854;SDS011;45732;52.850;6.896;2022-09-17T08:39:44;7.88;;;1.30;;
59854;SDS011;45732;52.850;6.896;2022-09-17T08:45:09;7.85;;;1.23;;
59854;SDS011;45732;52.850;6.896;2022-09-17T08:47:38;6.95;;;1.20;;
59854;SDS011;45732;52.850;6.896;2022-09-17T08:55:39;7.78;;;1.60;;
59854;SDS011;45732;52.850;6.896;2022-09-17T09:01:26;8.80;;;1.25;;
59854;SDS011;45732;52.850;6.896;2022-09-17T09:04:06;8.23;;;1.10;;
59854;SDS011;45732;52.850;6.896;2022-09-17T09:07:01;9.13;;;1.38;;
59854;SDS011;45732;52.850;6.896;2022-09-17T09:09:39;11.40;;;1.30;;
59854;SDS011;45732;52.850;6.896;2022-09-17T09:12:14;8.00;;;1.25;;
59854;SDS011;45732;52.850;6.896;2022-09-17T09:14:54;6.68;;;1.10;;
59854;SDS011;45732;52.850;6.896;2022-09-17T09:19:53;6.50;;;1.17;;
59854;SDS011;45732;52.850;6.896;2022-09-17T09:27:55;7.57;;;1.20;;
59854;SDS011;45732;52.850;6.896;2022-09-17T09:33:38;10.40;;;1.48;;
59854;SDS011;45732;52.850;6.896;2022-09-17T09:36:07;11.73;;;1.52;;
59854;SDS011;45732;52.850;6.896;2022-09-17T09:41:30;8.32;;;1.25;;
59854;SDS011;45732;52.850;6.896;2022-09-17T09:44:14;7.05;;;1.23;;
59854;SDS011;45732;52.850;6.896;2022-09-17T09:57:49;11.77;;;1.88;;
59854;SDS011;45732;52.850;6.896;2022-09-17T10:00:27;12.73;;;1.67;;
59854;SDS011;45732;52.850;6.896;2022-09-17T10:05:28;8.10;;;1.20;;
59854;SDS011;45732;52.850;6.896;2022-09-17T10:07:55;6.30;;;1.10;;
59854;SDS011;45732;52.850;6.896;2022-09-17T10:10:21;10.73;;;1.40;;
59854;SDS011;45732;52.850;6.896;2022-09-17T10:12:47;10.45;;;1.60;;
59854;SDS011;45732;52.850;6.896;2022-09-17T10:15:23;8.52;;;1.67;;
59854;SDS011;45732;52.850;6.896;2022-09-17T10:18:09;11.35;;;1.95;;
59854;SDS011;45732;52.850;6.896;2022-09-17T10:20:47;8.27;;;1.73;;
59854;SDS011;45732;52.850;6.896;2022-09-17T10:23:14;8.48;;;1.40;;
59854;SDS011;45732;52.850;6.896;2022-09-17T10:25:43;10.15;;;1.30;;
59854;SDS011;45732;52.850;6.896;2022-09-17T10:30:57;9.18;;;1.42;;
59854;SDS011;45732;52.850;6.896;2022-09-17T10:33:25;8.40;;;1.10;;
59854;SDS011;45732;52.850;6.896;2022-09-17T10:36:14;11.27;;;1.85;;
59854;SDS011;45732;52.850;6.896;2022-09-17T10:38:39;7.93;;;1.23;;
59854;SDS011;45732;52.850;6.896;2022-09-17T10:41:11;8.55;;;1.15;;
59854;SDS011;45732;52.850;6.896;2022-09-17T10:43:39;5.73;;;1.30;;
59854;SDS011;45732;52.850;6.896;2022-09-17T10:46:07;8.95;;;1.10;;
59854;SDS011;45732;52.850;6.896;2022-09-17T10:48:49;8.25;;;1.48;;
59854;SDS011;45732;52.850;6.896;2022-09-17T10:51:22;9.13;;;1.25;;
59854;SDS011;45732;52.850;6.896;2022-09-17T10:54:04;7.20;;;1.30;;
59854;SDS011;45732;52.850;6.896;2022-09-17T10:56:33;6.28;;;1.10;;
59854;SDS011;45732;52.850;6.896;2022-09-17T10:59:26;7.13;;;1.02;;
59854;SDS011;45732;52.850;6.896;2022-09-17T11:04:42;6.30;;;1.20;;
59854;SDS011;45732;52.850;6.896;2022-09-17T11:07:22;9.82;;;1.20;;
59854;SDS011;45732;52.850;6.896;2022-09-17T11:10:14;9.30;;;1.50;;
59854;SDS011;45732;52.850;6.896;2022-09-17T11:18:29;8.43;;;1.48;;
59854;SDS011;45732;52.850;6.896;2022-09-17T11:26:36;8.38;;;1.30;;
59854;SDS011;45732;52.850;6.896;2022-09-17T11:31:58;7.18;;;1.40;;
59854;SDS011;45732;52.850;6.896;2022-09-17T11:34:59;11.43;;;1.67;;
59854;SDS011;45732;52.850;6.896;2022-09-17T11:37:39;8.07;;;1.77;;
59854;SDS011;45732;52.850;6.896;2022-09-17T11:42:53;10.25;;;1.67;;
59854;SDS011;45732;52.850;6.896;2022-09-17T11:45:26;10.68;;;1.50;;
59854;SDS011;45732;52.850;6.896;2022-09-17T11:48:03;6.45;;;1.40;;
59854;SDS011;45732;52.850;6.896;2022-09-17T11:50:41;8.73;;;1.63;;
59854;SDS011;45732;52.850;6.896;2022-09-17T11:53:22;8.35;;;1.20;;
59854;SDS011;45732;52.850;6.896;2022-09-17T11:55:59;7.78;;;1.55;;
59854;SDS011;45732;52.850;6.896;2022-09-17T12:01:30;5.95;;;1.20;;
59854;SDS011;45732;52.850;6.896;2022-09-17T12:09:40;11.18;;;1.75;;
59854;SDS011;45732;52.850;6.896;2022-09-17T12:12:16;7.20;;;1.30;;
59854;SDS011;45732;52.850;6.896;2022-09-17T12:17:16;10.27;;;1.92;;
59854;SDS011;45732;52.850;6.896;2022-09-17T12:24:52;11.50;;;1.80;;
59854;SDS011;45732;52.850;6.896;2022-09-17T12:30:21;11.85;;;1.90;;
59854;SDS011;45732;52.850;6.896;2022-09-17T12:41:18;9.45;;;1.70;;
59854;SDS011;45732;52.850;6.896;2022-09-17T12:49:30;9.45;;;1.75;;
59854;SDS011;45732;52.850;6.896;2022-09-17T12:58:25;8.07;;;1.40;;
59854;SDS011;45732;52.850;6.896;2022-09-17T13:01:02;9.80;;;1.80;;
59854;SDS011;45732;52.850;6.896;2022-09-17T13:03:48;9.70;;;1.52;;
59854;SDS011;45732;52.850;6.896;2022-09-17T13:16:57;11.00;;;2.05;;
59854;SDS011;45732;52.850;6.896;2022-09-17T13:19:35;11.85;;;1.70;;
59854;SDS011;45732;52.850;6.896;2022-09-17T13:22:18;10.68;;;2.10;;
59854;SDS011;45732;52.850;6.896;2022-09-17T13:24:45;10.05;;;1.58;;
59854;SDS011;45732;52.850;6.896;2022-09-17T13:27:24;10.13;;;1.65;;
59854;SDS011;45732;52.850;6.896;2022-09-17T13:37:36;10.65;;;2.13;;
59854;SDS011;45732;52.850;6.896;2022-09-17T13:45:30;12.13;;;2.00;;
59854;SDS011;45732;52.850;6.896;2022-09-17T13:47:58;13.20;;;2.70;;
59854;SDS011;45732;52.850;6.896;2022-09-17T13:58:20;14.90;;;2.38;;
59854;SDS011;45732;52.850;6.896;2022-09-17T14:05:56;11.57;;;2.40;;
59854;SDS011;45732;52.850;6.896;2022-09-17T14:08:51;13.18;;;2.42;;
59854;SDS011;45732;52.850;6.896;2022-09-17T14:22:10;12.35;;;1.95;;
59854;SDS011;45732;52.850;6.896;2022-09-17T14:24:34;12.90;;;2.28;;
59854;SDS011;45732;52.850;6.896;2022-09-17T14:32:36;7.68;;;1.67;;
59854;SDS011;45732;52.850;6.896;2022-09-17T14:37:45;9.90;;;1.90;;
59854;SDS011;45732;52.850;6.896;2022-09-17T14:40:17;7.75;;;2.03;;
59854;SDS011;45732;52.850;6.896;2022-09-17T14:42:44;10.60;;;1.90;;
59854;SDS011;45732;52.850;6.896;2022-09-17T14:45:31;11.68;;;2.22;;
59854;SDS011;45732;52.850;6.896;2022-09-17T14:50:48;10.90;;;1.80;;
59854;SDS011;45732;52.850;6.896;2022-09-17T14:53:17;15.90;;;2.45;;
59854;SDS011;45732;52.850;6.896;2022-09-17T14:55:50;9.52;;;1.95;;
59854;SDS011;45732;52.850;6.896;2022-09-17T14:58:35;10.25;;;1.80;;
59854;SDS011;45732;52.850;6.896;2022-09-17T15:01:04;9.38;;;1.60;;
59854;SDS011;45732;52.850;6.896;2022-09-17T15:03:30;8.05;;;1.58;;
59854;SDS011;45732;52.850;6.896;2022-09-17T15:05:55;8.27;;;1.48;;
59854;SDS011;45732;52.850;6.896;2022-09-17T15:08:22;9.35;;;1.75;;
59854;SDS011;45732;52.850;6.896;2022-09-17T15:11:05;8.27;;;1.52;;
59854;SDS011;45732;52.850;6.896;2022-09-17T15:13:36;7.15;;;1.20;;
59854;SDS011;45732;52.850;6.896;2022-09-17T15:16:24;6.85;;;1.50;;
59854;SDS011;45732;52.850;6.896;2022-09-17T15:18:51;7.32;;;1.08;;
59854;SDS011;45732;52.850;6.896;2022-09-17T15:24:07;8.93;;;1.42;;
59854;SDS011;45732;52.850;6.896;2022-09-17T15:26:42;9.77;;;1.80;;
59854;SDS011;45732;52.850;6.896;2022-09-17T15:29:13;7.85;;;1.65;;
59854;SDS011;45732;52.850;6.896;2022-09-17T15:31:39;8.40;;;1.90;;
59854;SDS011;45732;52.850;6.896;2022-09-17T15:34:05;9.57;;;1.58;;
59854;SDS011;45732;52.850;6.896;2022-09-17T15:36:33;8.68;;;1.73;;
59854;SDS011;45732;52.850;6.896;2022-09-17T15:38:59;7.35;;;1.25;;
59854;SDS011;45732;52.850;6.896;2022-09-17T15:41:28;10.32;;;1.85;;
59854;SDS011;45732;52.850;6.896;2022-09-17T15:46:36;9.57;;;1.80;;
59854;SDS011;45732;52.850;6.896;2022-09-17T15:49:02;8.20;;;1.50;;
59854;SDS011;45732;52.850;6.896;2022-09-17T15:51:48;7.72;;;1.40;;
59854;SDS011;45732;52.850;6.896;2022-09-17T15:54:27;9.88;;;1.60;;
59854;SDS011;45732;52.850;6.896;2022-09-17T15:56:55;10.75;;;2.05;;
59854;SDS011;45732;52.850;6.896;2022-09-17T15:59:26;9.30;;;1.42;;
59854;SDS011;45732;52.850;6.896;2022-09-17T16:01:54;7.88;;;1.40;;
59854;SDS011;45732;52.850;6.896;2022-09-17T16:04:22;7.25;;;1.23;;
59854;SDS011;45732;52.850;6.896;2022-09-17T16:06:52;7.18;;;1.38;;
59854;SDS011;45732;52.850;6.896;2022-09-17T16:09:38;11.50;;;1.50;;
59854;SDS011;45732;52.850;6.896;2022-09-17T16:12:19;8.98;;;1.60;;
59854;SDS011;45732;52.850;6.896;2022-09-17T16:14:56;5.83;;;1.17;;
59854;SDS011;45732;52.850;6.896;2022-09-17T16:17:41;8.27;;;1.35;;
59854;SDS011;45732;52.850;6.896;2022-09-17T16:22:40;6.72;;;1.20;;
59854;SDS011;45732;52.850;6.896;2022-09-17T16:25:06;8.20;;;1.67;;
59854;SDS011;45732;52.850;6.896;2022-09-17T16:27:34;5.57;;;1.20;;
59854;SDS011;45732;52.850;6.896;2022-09-17T16:30:15;5.38;;;1.00;;
59854;SDS011;45732;52.850;6.896;2022-09-17T16:32:43;7.82;;;1.20;;
59854;SDS011;45732;52.850;6.896;2022-09-17T16:35:10;5.43;;;1.10;;
59854;SDS011;45732;52.850;6.896;2022-09-17T16:37:37;8.95;;;1.83;;
59854;SDS011;45732;52.850;6.896;2022-09-17T16:40:03;10.60;;;1.45;;
59854;SDS011;45732;52.850;6.896;2022-09-17T16:42:30;7.18;;;1.30;;
59854;SDS011;45732;52.850;6.896;2022-09-17T16:44:56;6.70;;;1.30;;
59854;SDS011;45732;52.850;6.896;2022-09-17T16:47:24;8.68;;;1.35;;
59854;SDS011;45732;52.850;6.896;2022-09-17T16:49:49;10.60;;;1.60;;
59854;SDS011;45732;52.850;6.896;2022-09-17T16:52:15;8.80;;;1.75;;
59854;SDS011;45732;52.850;6.896;2022-09-17T16:54:41;7.30;;;1.88;;
59854;SDS011;45732;52.850;6.896;2022-09-17T16:57:06;8.80;;;1.50;;
59854;SDS011;45732;52.850;6.896;2022-09-17T16:59:32;5.97;;;1.38;;
59854;SDS011;45732;52.850;6.896;2022-09-17T17:01:58;10.80;;;2.33;;
59854;SDS011;45732;52.850;6.896;2022-09-17T17:04:24;7.05;;;1.60;;
59854;SDS011;45732;52.850;6.896;2022-09-17T17:06:49;8.85;;;1.60;;
59854;SDS011;45732;52.850;6.896;2022-09-17T17:09:15;7.88;;;1.63;;
59854;SDS011;45732;52.850;6.896;2022-09-17T17:11:41;8.52;;;1.75;;
59854;SDS011;45732;52.850;6.896;2022-09-17T17:14:07;7.82;;;1.30;;
59854;SDS011;45732;52.850;6.896;2022-09-17T17:16:33;7.07;;;1.40;;
59854;SDS011;45732;52.850;6.896;2022-09-17T17:18:59;8.23;;;1.40;;
59854;SDS011;45732;52.850;6.896;2022-09-17T17:21:24;8.88;;;1.60;;
59854;SDS011;45732;52.850;6.896;2022-09-17T17:23:50;8.20;;;1.50;;
59854;SDS011;45732;52.850;6.896;2022-09-17T17:26:16;9.98;;;1.50;;
59854;SDS011;45732;52.850;6.896;2022-09-17T17:28:42;7.50;;;1.40;;
59854;SDS011;45732;52.850;6.896;2022-09-17T17:31:08;10.35;;;1.60;;
59854;SDS011;45732;52.850;6.896;2022-09-17T17:33:35;9.55;;;1.80;;
59854;SDS011;45732;52.850;6.896;2022-09-17T17:36:02;7.13;;;1.48;;
59854;SDS011;45732;52.850;6.896;2022-09-17T17:38:28;11.90;;;2.20;;
59854;SDS011;45732;52.850;6.896;2022-09-17T17:41:10;10.45;;;2.10;;
59854;SDS011;45732;52.850;6.896;2022-09-17T17:43:37;7.45;;;1.45;;
59854;SDS011;45732;52.850;6.896;2022-09-17T17:46:04;9.38;;;1.73;;
59854;SDS011;45732;52.850;6.896;2022-09-17T17:48:32;12.57;;;1.95;;
59854;SDS011;45732;52.850;6.896;2022-09-17T17:51:04;11.60;;;1.88;;
59854;SDS011;45732;52.850;6.896;2022-09-17T17:53:32;7.43;;;1.45;;
59854;SDS011;45732;52.850;6.896;2022-09-17T17:55:58;9.05;;;1.50;;
59854;SDS011;45732;52.850;6.896;2022-09-17T17:58:26;10.52;;;1.95;;
59854;SDS011;45732;52.850;6.896;2022-09-17T18:00:52;9.95;;;2.20;;
59854;SDS011;45732;52.850;6.896;2022-09-17T18:03:18;12.38;;;2.10;;
59854;SDS011;45732;52.850;6.896;2022-09-17T18:05:44;11.70;;;1.88;;
59854;SDS011;45732;52.850;6.896;2022-09-17T18:08:10;11.93;;;2.08;;
59854;SDS011;45732;52.850;6.896;2022-09-17T18:10:35;10.20;;;2.00;;
59854;SDS011;45732;52.850;6.896;2022-09-17T18:13:01;11.52;;;1.75;;
59854;SDS011;45732;52.850;6.896;2022-09-17T18:15:27;11.95;;;1.90;;
59854;SDS011;45732;52.850;6.896;2022-09-17T18:17:52;11.70;;;1.70;;
59854;SDS011;45732;52.850;6.896;2022-09-17T18:20:18;8.77;;;1.55;;
59854;SDS011;45732;52.850;6.896;2022-09-17T18:22:46;10.68;;;1.85;;
59854;SDS011;45732;52.850;6.896;2022-09-17T18:25:12;8.13;;;1.65;;
59854;SDS011;45732;52.850;6.896;2022-09-17T18:27:37;12.93;;;2.08;;
59854;SDS011;45732;52.850;6.896;2022-09-17T18:30:03;10.90;;;1.92;;
59854;SDS011;45732;52.850;6.896;2022-09-17T18:32:29;9.38;;;1.45;;
59854;SDS011;45732;52.850;6.896;2022-09-17T18:34:55;10.80;;;2.08;;